Time;durP1;ratioP1;P1;durP2;ratioP2;P2;SDS_P1;SDS_P2;PMS_P1;PMS_P2;Temp;Humidity;BMP_temperature;BMP_pressure;BME280_temperature;BME280_humidity;BME280_pressure;Samples;Min_cycle;Max_cycle;Signal;HPM_P1;HPM_P2
2023/05/14 00:01:24;;;;;;;;;20.00;19.00;23.30;46.40;;;;;;111674;1241;48892;-65
2023/05/14 00:03:51;;;;;;;;;21.75;20.75;23.30;46.60;;;;;;111518;1237;50108;-67
2023/05/14 00:06:18;;;;;;;;;21.00;19.50;23.30;46.40;;;;;;111498;1237;45396;-64
2023/05/14 00:08:45;;;;;;;;;19.25;18.25;23.40;46.40;;;;;;111625;1240;55932;-63
2023/05/14 00:11:12;;;;;;;;;19.25;17.00;23.40;46.40;;;;;;111677;1240;53571;-62
2023/05/14 00:13:39;;;;;;;;;21.00;19.50;23.40;46.60;;;;;;111630;1240;49638;-63
2023/05/14 00:16:06;;;;;;;;;22.75;18.25;23.40;46.40;;;;;;111637;1235;49526;-62
2023/05/14 00:18:32;;;;;;;;;21.75;20.75;23.40;46.40;;;;;;111643;1237;45943;-62
2023/05/14 00:20:59;;;;;;;;;20.50;17.50;23.40;46.50;;;;;;111461;1240;56299;-61
2023/05/14 00:23:26;;;;;;;;;19.00;17.25;23.40;46.30;;;;;;111644;1239;54872;-61
2023/05/14 00:25:53;;;;;;;;;22.75;20.50;23.40;46.40;;;;;;111682;1235;49174;-61
2023/05/14 00:28:20;;;;;;;;;18.00;17.00;23.40;46.40;;;;;;111702;1240;48931;-62
2023/05/14 00:30:49;;;;;;;;;23.25;19.50;23.40;46.30;;;;;;111675;1237;45312;-63
2023/05/14 00:33:16;;;;;;;;;23.50;21.25;23.40;46.40;;;;;;111652;1237;55290;-62
2023/05/14 00:35:43;;;;;;;;;21.00;17.75;23.40;46.30;;;;;;111711;1235;53598;-62
2023/05/14 00:38:15;;;;;;;;;20.75;18.50;23.40;46.30;;;;;;111676;1240;49219;-61
2023/05/14 00:40:44;;;;;;;;;20.00;19.00;23.40;46.20;;;;;;111650;1240;49680;-61
2023/05/14 00:43:11;;;;;;;;;20.33;18.00;23.40;46.20;;;;;;111651;1235;46315;-62
2023/05/14 00:45:38;;;;;;;;;20.00;19.00;23.40;46.20;;;;;;111639;1237;56497;-61
2023/05/14 00:48:06;;;;;;;;;22.50;21.00;23.40;46.20;;;;;;111502;1241;54336;-62
2023/05/14 00:50:33;;;;;;;;;22.50;21.75;23.40;46.10;;;;;;111650;1235;49496;-63
2023/05/14 00:53:00;;;;;;;;;22.25;20.00;23.40;46.10;;;;;;111512;1243;48995;-64
2023/05/14 00:55:29;;;;;;;;;19.25;17.75;23.40;46.20;;;;;;111609;1241;46192;-63
2023/05/14 00:57:57;;;;;;;;;21.00;19.00;23.40;46.20;;;;;;111527;1243;55227;-63
2023/05/14 01:00:23;;;;;;;;;19.50;18.25;23.40;46.10;;;;;;111569;1237;54068;-63
2023/05/14 01:02:50;;;;;;;;;18.50;17.25;23.40;46.30;;;;;;111606;1239;48932;-61
2023/05/14 01:05:17;;;;;;;;;21.75;20.00;23.40;46.10;;;;;;111628;1238;49535;-67
2023/05/14 01:08:05;;;;;;;;;19.50;18.25;23.40;46.20;;;;;;111588;1237;46401;-63
2023/05/14 01:10:48;;;;;;;;;17.00;16.00;23.40;46.10;;;;;;111234;1240;56243;-63
2023/05/14 01:13:23;;;;;;;;;22.50;20.25;23.40;46.10;;;;;;111642;1238;54597;-64
2023/05/14 01:15:54;;;;;;;;;19.75;18.75;23.40;46.00;;;;;;111584;1235;49821;-64
2023/05/14 01:18:23;;;;;;;;;23.75;19.00;23.40;45.90;;;;;;111753;1237;49523;-68
2023/05/14 01:20:51;;;;;;;;;20.33;18.33;23.40;45.90;;;;;;111545;1237;45671;-66
2023/05/14 01:23:18;;;;;;;;;18.75;17.50;23.40;45.90;;;;;;111747;1240;55335;-67
2023/05/14 01:25:45;;;;;;;;;21.75;20.75;23.40;45.90;;;;;;111686;1235;53427;-61
2023/05/14 01:28:20;;;;;;;;;18.00;15.00;23.40;45.80;;;;;;111675;1237;50363;-61
2023/05/14 01:31:03;;;;;;;;;18.75;17.75;23.40;45.80;;;;;;111579;1240;48888;-62
2023/05/14 01:33:32;;;;;;;;;18.50;17.25;23.30;45.90;;;;;;111546;1238;45370;-61
2023/05/14 01:36:00;;;;;;;;;17.25;16.25;23.30;45.90;;;;;;111631;1240;56034;-62
2023/05/14 01:38:32;;;;;;;;;17.50;16.25;23.30;45.70;;;;;;111575;1241;54750;-63
2023/05/14 01:41:00;;;;;;;;;22.75;19.00;23.30;45.60;;;;;;111627;1237;50233;-62
2023/05/14 01:43:27;;;;;;;;;21.50;18.00;23.30;45.60;;;;;;111647;1235;49195;-63
2023/05/14 01:45:54;;;;;;;;;20.00;18.75;23.30;45.60;;;;;;111514;1237;45841;-63
2023/05/14 01:48:21;;;;;;;;;23.00;20.33;23.30;45.90;;;;;;111587;1238;56118;-62
2023/05/14 01:50:48;;;;;;;;;20.50;17.25;23.30;45.60;;;;;;111685;1242;53373;-63
2023/05/14 01:53:15;;;;;;;;;18.75;17.75;23.20;45.60;;;;;;111640;1239;49808;-63
2023/05/14 01:55:42;;;;;;;;;21.50;18.75;23.20;45.90;;;;;;111640;1239;49095;-62
2023/05/14 01:58:09;;;;;;;;;22.67;19.00;23.20;45.60;;;;;;111693;1235;45409;-63
2023/05/14 02:00:37;;;;;;;;;20.33;19.33;23.20;45.80;;;;;;111665;1237;56658;-62
2023/05/14 02:03:04;;;;;;;;;21.00;18.00;23.20;45.50;;;;;;111656;1236;54126;-62
2023/05/14 02:05:31;;;;;;;;;22.25;19.75;23.10;46.00;;;;;;111642;1236;49389;-63
2023/05/14 02:07:57;;;;;;;;;20.00;17.50;23.10;45.50;;;;;;111642;1241;49232;-64
2023/05/14 02:10:24;;;;;;;;;19.00;17.00;23.10;46.00;;;;;;111635;1241;45353;-63
2023/05/14 02:12:51;;;;;;;;;18.00;16.75;23.10;45.50;;;;;;111558;1237;56436;-61
2023/05/14 02:15:18;;;;;;;;;21.75;18.25;23.10;45.50;;;;;;111654;1235;53601;-62
2023/05/14 02:17:45;;;;;;;;;17.00;16.00;23.10;45.60;;;;;;111558;1239;49353;-60
2023/05/14 02:20:12;;;;;;;;;23.67;19.00;23.10;45.60;;;;;;111656;1235;49456;-66
2023/05/14 02:22:44;;;;;;;;;17.00;16.00;23.10;45.80;;;;;;111674;1237;45358;-64
2023/05/14 02:25:11;;;;;;;;;18.75;17.75;23.10;45.60;;;;;;111649;1240;56755;-62
2023/05/14 02:27:38;;;;;;;;;21.67;17.33;23.10;45.70;;;;;;111556;1240;55119;-64
2023/05/14 02:30:06;;;;;;;;;20.75;18.00;23.10;45.60;;;;;;111676;1235;50531;-61
2023/05/14 02:32:33;;;;;;;;;18.00;17.00;23.10;45.60;;;;;;111661;1241;49849;-62
2023/05/14 02:34:59;;;;;;;;;21.75;19.75;23.10;45.60;;;;;;111710;1240;45604;-62
2023/05/14 02:37:26;;;;;;;;;18.00;16.75;23.10;45.60;;;;;;111672;1240;56544;-64
2023/05/14 02:39:53;;;;;;;;;20.50;19.75;23.20;45.70;;;;;;111660;1240;53995;-63
2023/05/14 02:42:20;;;;;;;;;19.00;18.00;23.20;45.70;;;;;;111695;1241;49708;-63
2023/05/14 02:44:47;;;;;;;;;19.50;17.00;23.20;45.90;;;;;;111679;1240;50689;-63
2023/05/14 02:47:14;;;;;;;;;18.75;17.25;23.20;45.70;;;;;;111601;1241;46681;-63
2023/05/14 02:49:41;;;;;;;;;19.00;18.00;23.20;45.70;;;;;;111675;1240;55328;-66
2023/05/14 02:52:08;;;;;;;;;20.00;19.00;23.30;45.80;;;;;;111740;1240;54098;-65
2023/05/14 02:54:35;;;;;;;;;19.00;18.00;23.30;45.70;;;;;;111995;1239;50017;-64
2023/05/14 02:57:02;;;;;;;;;20.00;17.00;23.30;45.70;;;;;;111697;1237;50359;-63
2023/05/14 02:59:30;;;;;;;;;20.75;19.75;23.30;46.20;;;;;;111664;1237;45973;-64
2023/05/14 03:01:57;;;;;;;;;18.50;17.25;23.30;45.50;;;;;;111750;1241;56734;-65
2023/05/14 03:04:24;;;;;;;;;16.00;15.00;23.30;45.70;;;;;;111985;1239;53457;-64
2023/05/14 03:06:51;;;;;;;;;18.25;16.00;23.30;45.50;;;;;;111767;1239;48979;-63
2023/05/14 03:09:18;;;;;;;;;16.75;15.75;23.40;45.70;;;;;;111493;1237;49375;-64
2023/05/14 03:11:45;;;;;;;;;19.67;18.67;23.40;45.50;;;;;;111731;1241;46233;-63
2023/05/14 03:14:12;;;;;;;;;17.67;16.67;23.40;45.50;;;;;;111487;1242;55465;-61
2023/05/14 03:16:41;;;;;;;;;17.25;16.00;23.40;45.50;;;;;;111665;1240;53461;-63
2023/05/14 03:19:08;;;;;;;;;20.00;17.67;23.40;45.50;;;;;;111657;1240;49778;-64
2023/05/14 03:21:35;;;;;;;;;24.00;19.33;23.40;45.40;;;;;;111598;1237;49453;-62
2023/05/14 03:24:02;;;;;;;;;19.50;16.75;23.40;45.50;;;;;;111472;1237;45959;-61
2023/05/14 03:26:29;;;;;;;;;23.75;18.25;23.40;45.90;;;;;;111660;1235;55369;-61
2023/05/14 03:28:56;;;;;;;;;17.00;15.50;23.30;46.00;;;;;;111576;1237;53979;-61
2023/05/14 03:31:23;;;;;;;;;20.75;19.75;23.30;45.90;;;;;;111589;1240;49941;-62
2023/05/14 03:33:50;;;;;;;;;17.50;16.50;23.30;45.80;;;;;;111496;1237;50448;-62
2023/05/14 03:36:17;;;;;;;;;19.00;18.00;23.30;45.70;;;;;;111596;1235;46390;-62
2023/05/14 03:38:44;;;;;;;;;21.00;19.00;23.30;45.80;;;;;;111638;1235;55012;-62
2023/05/14 03:41:11;;;;;;;;;22.50;20.25;23.30;45.70;;;;;;111686;1236;54139;-62
2023/05/14 03:43:38;;;;;;;;;23.75;20.75;23.30;46.00;;;;;;111648;1241;50473;-62
2023/05/14 03:46:05;;;;;;;;;23.75;19.25;23.30;45.70;;;;;;111664;1235;49470;-62
2023/05/14 03:48:32;;;;;;;;;18.75;17.50;23.30;45.70;;;;;;111656;1235;45893;-62
2023/05/14 03:50:59;;;;;;;;;19.75;18.75;23.30;45.60;;;;;;111628;1235;55703;-61
2023/05/14 03:53:25;;;;;;;;;21.33;18.67;23.30;45.50;;;;;;111658;1235;54558;-61
2023/05/14 03:55:52;;;;;;;;;20.00;18.33;23.30;45.50;;;;;;111588;1237;49904;-61
2023/05/14 03:58:19;;;;;;;;;22.25;19.75;23.30;45.50;;;;;;111694;1235;49494;-61
2023/05/14 04:00:47;;;;;;;;;22.00;18.75;23.30;45.60;;;;;;111620;1235;45473;-62
2023/05/14 04:03:14;;;;;;;;;22.00;19.00;23.30;45.40;;;;;;111505;1238;55497;-63
2023/05/14 04:05:41;;;;;;;;;18.25;17.00;23.30;45.40;;;;;;111590;1235;54220;-67
2023/05/14 04:08:08;;;;;;;;;21.75;19.50;23.30;45.80;;;;;;111863;1240;48860;-64
2023/05/14 04:10:35;;;;;;;;;20.00;17.75;23.40;45.60;;;;;;112168;1237;50851;-67
2023/05/14 04:13:02;;;;;;;;;21.00;18.00;23.40;45.60;;;;;;112303;1236;45156;-67
2023/05/14 04:15:29;;;;;;;;;18.33;17.00;23.40;45.70;;;;;;112073;1235;57228;-65
2023/05/14 04:17:55;;;;;;;;;19.00;16.33;23.50;45.70;;;;;;111760;1239;54282;-65
2023/05/14 04:20:22;;;;;;;;;21.00;20.00;23.60;45.90;;;;;;111786;1243;48966;-62
2023/05/14 04:22:49;;;;;;;;;22.67;19.67;23.60;46.10;;;;;;111661;1238;49303;-67
2023/05/14 04:25:18;;;;;;;;;21.33;18.33;23.60;45.90;;;;;;112030;1236;46021;-66
2023/05/14 04:27:45;;;;;;;;;17.75;16.75;23.60;45.60;;;;;;111852;1237;56138;-67
2023/05/14 04:30:14;;;;;;;;;20.25;19.25;23.70;45.60;;;;;;111814;1240;53135;-67
2023/05/14 04:32:41;;;;;;;;;20.00;17.67;23.60;45.20;;;;;;111758;1237;49716;-67
2023/05/14 04:35:09;;;;;;;;;23.25;21.75;23.70;44.80;;;;;;112002;1240;48841;-67
2023/05/14 04:37:36;;;;;;;;;27.25;23.00;23.60;45.90;;;;;;111717;1241;45396;-66
2023/05/14 04:40:05;;;;;;;;;25.75;25.00;23.60;47.80;;;;;;111741;1240;55685;-67
2023/05/14 04:42:32;;;;;;;;;31.00;30.00;23.60;49.40;;;;;;111758;1241;53294;-67
2023/05/14 04:44:59;;;;;;;;;25.75;24.25;23.60;50.80;;;;;;111880;1238;50011;-67
2023/05/14 04:47:26;;;;;;;;;24.33;19.33;23.60;50.00;;;;;;111634;1242;48898;-67
2023/05/14 04:49:53;;;;;;;;;23.67;20.67;23.60;49.60;;;;;;111792;1240;45408;-68
2023/05/14 04:52:20;;;;;;;;;26.50;22.50;23.60;49.10;;;;;;111854;1236;56286;-67
2023/05/14 04:54:47;;;;;;;;;22.00;19.50;23.60;48.50;;;;;;112146;1240;54028;-69
2023/05/14 04:57:14;;;;;;;;;19.75;18.50;23.60;48.30;;;;;;111637;1237;48909;-72
2023/05/14 04:59:41;;;;;;;;;20.33;18.00;23.60;47.70;;;;;;111761;1240;49638;-69
2023/05/14 05:02:08;;;;;;;;;23.75;21.75;23.60;47.50;;;;;;111649;1237;45953;-70
2023/05/14 05:04:35;;;;;;;;;25.33;22.00;23.60;47.20;;;;;;111969;1240;55913;-68
2023/05/14 05:07:02;;;;;;;;;24.50;20.50;23.50;47.40;;;;;;111800;1243;53488;-68
2023/05/14 05:09:30;;;;;;;;;24.50;22.00;23.50;46.70;;;;;;111568;1240;49103;-68
2023/05/14 05:11:57;;;;;;;;;21.75;19.75;23.50;46.80;;;;;;111617;1241;49983;-67
2023/05/14 05:14:24;;;;;;;;;27.00;26.00;23.50;46.80;;;;;;111948;1241;45257;-68
2023/05/14 05:16:51;;;;;;;;;25.00;24.00;23.50;47.20;;;;;;111796;1240;55573;-68
2023/05/14 05:19:18;;;;;;;;;22.50;21.75;23.50;47.50;;;;;;111702;1238;53477;-67
2023/05/14 05:21:45;;;;;;;;;20.00;19.25;23.50;47.30;;;;;;111757;1236;49811;-68
2023/05/14 05:24:12;;;;;;;;;20.00;19.00;23.50;47.20;;;;;;111734;1237;49509;-69
2023/05/14 05:26:39;;;;;;;;;25.33;23.00;23.50;47.10;;;;;;111926;1237;45654;-68
2023/05/14 05:29:07;;;;;;;;;26.67;23.67;23.50;46.90;;;;;;111698;1237;56172;-70
2023/05/14 05:31:34;;;;;;;;;21.00;20.00;23.50;46.70;;;;;;111718;1240;53829;-67
2023/05/14 05:34:02;;;;;;;;;23.75;22.75;23.50;46.50;;;;;;111674;1241;48965;-69
2023/05/14 05:36:30;;;;;;;;;24.25;21.75;23.40;46.20;;;;;;111985;1241;48900;-69
2023/05/14 05:38:57;;;;;;;;;26.00;23.00;23.40;46.20;;;;;;111714;1246;45920;-69
2023/05/14 05:41:25;;;;;;;;;24.50;21.25;23.40;46.10;;;;;;111758;1240;55162;-68
2023/05/14 05:43:52;;;;;;;;;23.50;21.00;23.40;46.00;;;;;;111767;1241;54288;-64
2023/05/14 05:46:19;;;;;;;;;23.00;19.00;23.40;46.10;;;;;;111329;1236;49592;-62
2023/05/14 05:48:46;;;;;;;;;21.75;18.75;23.40;46.50;;;;;;111561;1236;50583;-62
2023/05/14 05:51:13;;;;;;;;;23.00;20.00;23.40;46.00;;;;;;111535;1242;45258;-61
2023/05/14 05:53:40;;;;;;;;;28.25;24.75;23.40;46.30;;;;;;111608;1238;56575;-64
2023/05/14 05:56:07;;;;;;;;;24.00;21.67;23.40;45.80;;;;;;111513;1240;54452;-65
2023/05/14 05:58:34;;;;;;;;;50.00;33.67;23.40;45.80;;;;;;111506;1238;49241;-63
2023/05/14 06:01:01;;;;;;;;;37.67;31.00;23.40;48.60;;;;;;111623;1240;49916;-63
2023/05/14 06:03:28;;;;;;;;;43.00;32.67;23.40;50.40;;;;;;111615;1237;45792;-63
2023/05/14 06:05:55;;;;;;;;;45.50;33.00;23.40;52.20;;;;;;111426;1237;55351;-63
2023/05/14 06:08:22;;;;;;;;;42.25;32.50;23.40;51.00;;;;;;111658;1236;54709;-62
2023/05/14 06:10:49;;;;;;;;;42.50;31.50;23.40;49.80;;;;;;111421;1240;49372;-63
2023/05/14 06:13:16;;;;;;;;;26.00;23.25;23.40;49.50;;;;;;113408;1240;50024;-63
2023/05/14 06:15:43;;;;;;;;;31.50;26.00;23.40;49.20;;;;;;111420;1240;45833;-63
2023/05/14 06:18:09;;;;;;;;;35.67;25.67;23.60;49.00;;;;;;111573;1241;56660;-63
2023/05/14 06:20:36;;;;;;;;;35.75;27.25;23.70;48.70;;;;;;111470;1236;53304;-63
2023/05/14 06:23:03;;;;;;;;;25.25;24.25;23.60;48.20;;;;;;111503;1246;49375;-63
2023/05/14 06:25:30;;;;;;;;;38.67;29.00;23.60;47.90;;;;;;111335;1238;53357;-63
2023/05/14 06:27:57;;;;;;;;;34.33;24.00;23.60;47.90;;;;;;111554;1239;45501;-63
2023/05/14 06:30:24;;;;;;;;;25.00;22.33;23.50;47.70;;;;;;111427;1242;56160;-70
2023/05/14 06:32:51;;;;;;;;;29.50;25.75;23.50;47.60;;;;;;111474;1243;53411;-68
2023/05/14 06:35:18;;;;;;;;;37.00;26.75;23.50;47.70;;;;;;111330;1243;49117;-67
2023/05/14 06:37:45;;;;;;;;;29.00;25.33;23.50;47.90;;;;;;111586;1238;48688;-67
2023/05/14 06:40:14;;;;;;;;;23.25;21.00;23.50;47.70;;;;;;111586;1238;46616;-69
2023/05/14 06:42:41;;;;;;;;;35.67;26.67;23.50;47.50;;;;;;111663;1236;55285;-69
2023/05/14 06:45:08;;;;;;;;;26.00;23.00;23.40;47.30;;;;;;111446;1237;53822;-68
2023/05/14 06:47:35;;;;;;;;;28.75;25.00;23.40;47.20;;;;;;111563;1241;49955;-70
2023/05/14 06:50:03;;;;;;;;;31.50;23.50;23.40;47.00;;;;;;111591;1240;49469;-68
2023/05/14 06:52:30;;;;;;;;;34.50;26.25;23.40;46.90;;;;;;111643;1241;45812;-68
2023/05/14 06:54:57;;;;;;;;;30.50;24.50;23.40;47.40;;;;;;111466;1237;55736;-68
2023/05/14 06:57:24;;;;;;;;;30.25;26.00;23.40;46.80;;;;;;111658;1240;54100;-68
2023/05/14 06:59:51;;;;;;;;;26.75;23.50;23.40;46.90;;;;;;111612;1242;50878;-67
2023/05/14 07:02:17;;;;;;;;;27.75;23.75;23.40;46.60;;;;;;111639;1238;48965;-67
2023/05/14 07:04:45;;;;;;;;;26.00;21.00;23.40;46.50;;;;;;111688;1237;46547;-67
2023/05/14 07:07:14;;;;;;;;;25.25;21.25;23.30;46.50;;;;;;111605;1238;56369;-68
2023/05/14 07:09:41;;;;;;;;;27.33;24.67;23.30;46.40;;;;;;111593;1240;54071;-67
2023/05/14 07:12:08;;;;;;;;;23.00;19.50;23.30;46.30;;;;;;111590;1240;50419;-68
2023/05/14 07:14:35;;;;;;;;;34.25;27.25;23.30;46.30;;;;;;111664;1237;49991;-65
2023/05/14 07:17:02;;;;;;;;;23.00;19.50;23.30;46.30;;;;;;111661;1237;46064;-66
2023/05/14 07:19:29;;;;;;;;;31.00;25.00;23.30;46.20;;;;;;111640;1241;56011;-67
2023/05/14 07:21:56;;;;;;;;;25.25;21.75;23.30;46.10;;;;;;111731;1240;54129;-67
2023/05/14 07:24:23;;;;;;;;;26.25;22.00;23.40;46.10;;;;;;111967;1238;49556;-66
2023/05/14 07:26:50;;;;;;;;;30.67;23.67;23.40;46.00;;;;;;111738;1239;50794;-67
2023/05/14 07:29:17;;;;;;;;;21.75;19.75;23.40;45.90;;;;;;111627;1237;45547;-68
2023/05/14 07:31:45;;;;;;;;;33.50;23.50;23.40;45.80;;;;;;111419;1237;56102;-67
2023/05/14 07:34:12;;;;;;;;;26.75;20.50;23.40;45.70;;;;;;111880;1236;54584;-69
2023/05/14 07:36:39;;;;;;;;;28.00;22.75;23.40;45.50;;;;;;111891;1238;50311;-69
2023/05/14 07:39:06;;;;;;;;;26.50;22.75;23.50;45.30;;;;;;111783;1240;49725;-69
2023/05/14 07:41:32;;;;;;;;;23.75;20.50;23.50;44.90;;;;;;111792;1238;45714;-69
2023/05/14 07:43:59;;;;;;;;;19.75;18.75;23.50;44.60;;;;;;111674;1237;55895;-68
2023/05/14 07:46:27;;;;;;;;;27.00;19.75;23.50;44.20;;;;;;112019;1236;53932;-68
2023/05/14 07:48:54;;;;;;;;;25.25;18.25;23.50;43.70;;;;;;111703;1240;50693;-69
2023/05/14 07:51:21;;;;;;;;;22.33;20.67;23.60;43.50;;;;;;111730;1240;50345;-69
2023/05/14 07:53:48;;;;;;;;;23.00;18.25;23.60;44.00;;;;;;111701;1237;45264;-69
2023/05/14 07:56:15;;;;;;;;;21.75;20.75;23.60;43.80;;;;;;111959;1237;55456;-68
2023/05/14 07:58:42;;;;;;;;;18.33;15.67;23.60;43.60;;;;;;111678;1240;53593;-68
2023/05/14 08:01:11;;;;;;;;;19.50;17.75;23.60;43.50;;;;;;111826;1241;49570;-69
2023/05/14 08:03:38;;;;;;;;;19.75;17.75;23.60;43.50;;;;;;111641;1237;49672;-69
2023/05/14 08:06:05;;;;;;;;;18.67;17.33;23.60;43.60;;;;;;111886;1240;45998;-70
2023/05/14 08:08:32;;;;;;;;;23.33;18.67;23.70;44.10;;;;;;111656;1236;55816;-69
2023/05/14 08:10:59;;;;;;;;;22.00;17.75;23.70;43.80;;;;;;111679;1240;54629;-70
2023/05/14 08:13:26;;;;;;;;;23.67;20.33;23.70;44.80;;;;;;111760;1240;49584;-70
2023/05/14 08:15:54;;;;;;;;;31.50;25.50;23.80;45.40;;;;;;111846;1237;50599;-70
2023/05/14 08:18:21;;;;;;;;;30.25;25.00;23.80;45.40;;;;;;111600;1237;45647;-68
2023/05/14 08:20:48;;;;;;;;;32.25;27.00;23.80;45.40;;;;;;111662;1240;55835;-67
2023/05/14 08:23:15;;;;;;;;;32.75;27.25;23.80;45.30;;;;;;111795;1238;53883;-68
2023/05/14 08:25:42;;;;;;;;;31.00;23.50;23.90;45.60;;;;;;111474;1238;49971;-68
2023/05/14 08:28:08;;;;;;;;;31.00;25.00;23.90;45.40;;;;;;111673;1236;49630;-68
2023/05/14 08:30:35;;;;;;;;;28.00;22.67;23.90;45.50;;;;;;111603;1238;45810;-68
2023/05/14 08:33:02;;;;;;;;;28.50;23.25;23.90;45.20;;;;;;111685;1241;55123;-66
2023/05/14 08:35:29;;;;;;;;;29.00;24.33;23.90;45.10;;;;;;111938;1240;53282;-68
2023/05/14 08:37:56;;;;;;;;;31.33;29.00;24.00;45.20;;;;;;111682;1237;49370;-68
2023/05/14 08:40:23;;;;;;;;;27.25;25.25;24.00;45.00;;;;;;111703;1240;49229;-68
2023/05/14 08:42:50;;;;;;;;;28.75;19.50;24.00;44.90;;;;;;111719;1237;45945;-68
2023/05/14 08:45:19;;;;;;;;;26.33;23.33;24.10;45.10;;;;;;112014;1240;55639;-66
2023/05/14 08:47:49;;;;;;;;;27.00;23.33;24.10;45.50;;;;;;111682;1241;53443;-68
2023/05/14 08:50:17;;;;;;;;;26.50;23.00;24.10;44.80;;;;;;111799;1236;49644;-67
2023/05/14 08:52:44;;;;;;;;;29.00;25.50;24.20;44.70;;;;;;111618;1237;49073;-68
2023/05/14 08:55:12;;;;;;;;;24.00;22.00;24.20;44.60;;;;;;111967;1240;45897;-68
2023/05/14 08:57:39;;;;;;;;;24.00;21.25;24.20;44.60;;;;;;111673;1238;55199;-68
2023/05/14 09:00:15;;;;;;;;;29.50;21.25;24.30;44.70;;;;;;111124;1242;625821;-67
2023/05/14 09:02:43;;;;;;;;;28.00;25.50;24.30;44.50;;;;;;111648;1238;49918;-67
2023/05/14 09:05:11;;;;;;;;;26.75;21.00;24.30;44.60;;;;;;111421;1238;49285;-67
2023/05/14 09:07:38;;;;;;;;;24.00;22.00;24.30;44.30;;;;;;111705;1236;46125;-67
2023/05/14 09:10:07;;;;;;;;;26.67;22.67;24.40;44.30;;;;;;111611;1237;55741;-67
2023/05/14 09:12:34;;;;;;;;;32.50;23.25;24.40;44.50;;;;;;111755;1239;53965;-67
2023/05/14 09:15:02;;;;;;;;;26.00;24.00;24.40;44.30;;;;;;111998;1240;49576;-68
2023/05/14 09:17:29;;;;;;;;;27.00;22.25;24.40;44.20;;;;;;111702;1241;50233;-68
2023/05/14 09:19:56;;;;;;;;;25.25;20.50;24.40;44.10;;;;;;111628;1241;46189;-69
2023/05/14 09:22:23;;;;;;;;;22.75;21.75;24.50;44.10;;;;;;111556;1237;55049;-68
2023/05/14 09:25:08;;;;;;;;;25.67;21.00;24.50;44.30;;;;;;111760;1243;53443;-68
2023/05/14 09:27:35;;;;;;;;;27.33;24.33;24.50;44.20;;;;;;111710;1240;49726;-67
2023/05/14 09:30:10;;;;;;;;;28.50;22.25;24.60;44.00;;;;;;111612;1240;49827;-70
2023/05/14 09:32:46;;;;;;;;;26.00;19.00;24.60;43.90;;;;;;111485;1241;45136;-68
2023/05/14 09:35:18;;;;;;;;;22.33;18.00;24.70;43.90;;;;;;112034;1237;55536;-67
2023/05/14 09:37:46;;;;;;;;;25.50;23.50;24.70;43.90;;;;;;111567;1238;53193;-67
2023/05/14 09:40:14;;;;;;;;;23.00;19.50;24.70;43.80;;;;;;111756;1240;49234;-67
2023/05/14 09:42:41;;;;;;;;;23.75;19.75;24.80;43.80;;;;;;111350;1243;49304;-66
2023/05/14 09:45:09;;;;;;;;;25.25;21.25;24.80;43.80;;;;;;111372;1237;45999;-67
2023/05/14 09:47:37;;;;;;;;;23.25;21.25;24.80;43.70;;;;;;111768;1236;55427;-67
2023/05/14 09:50:05;;;;;;;;;22.50;19.00;24.90;43.70;;;;;;111600;1243;53727;-67
2023/05/14 09:52:32;;;;;;;;;21.00;20.00;24.90;43.70;;;;;;111756;1237;49754;-67
2023/05/14 09:55:00;;;;;;;;;18.00;16.75;24.90;44.10;;;;;;111935;1240;49134;-67
2023/05/14 09:57:27;;;;;;;;;22.50;21.00;24.90;43.70;;;;;;111419;1238;45425;-67
2023/05/14 09:59:54;;;;;;;;;25.25;21.00;25.00;43.50;;;;;;111561;1237;56188;-70
2023/05/14 10:02:26;;;;;;;;;27.50;20.00;25.00;43.50;;;;;;111722;1236;53861;-68
2023/05/14 10:04:53;;;;;;;;;26.00;21.50;25.00;43.40;;;;;;112055;1240;49101;-67
2023/05/14 10:07:28;;;;;;;;;24.00;20.67;25.00;43.50;;;;;;111739;1237;48822;-66
2023/05/14 10:10:01;;;;;;;;;23.25;19.00;25.10;43.60;;;;;;111769;1237;46133;-67
2023/05/14 10:12:33;;;;;;;;;25.75;22.50;25.10;43.50;;;;;;111676;1237;55413;-67
2023/05/14 10:15:03;;;;;;;;;22.00;19.25;25.20;43.20;;;;;;112089;1238;53385;-68
2023/05/14 10:17:33;;;;;;;;;19.50;17.00;25.20;43.20;;;;;;111668;1237;49334;-67
2023/05/14 10:20:01;;;;;;;;;27.75;25.75;25.30;43.20;;;;;;111458;1237;50358;-68
2023/05/14 10:22:32;;;;;;;;;20.75;16.75;25.30;43.10;;;;;;111381;1242;45421;-66
2023/05/14 10:25:01;;;;;;;;;26.00;19.00;25.30;43.00;;;;;;112060;1236;55631;-67
2023/05/14 10:27:28;;;;;;;;;20.75;18.00;25.30;43.00;;;;;;111677;1237;54120;-68
2023/05/14 10:29:55;;;;;;;;;23.33;21.00;25.30;43.10;;;;;;111727;1237;50361;-66
2023/05/14 10:32:24;;;;;;;;;19.00;15.00;25.40;43.00;;;;;;111817;1240;50363;-68
2023/05/14 10:34:52;;;;;;;;;26.25;22.75;25.40;42.90;;;;;;112079;1237;45281;-67
2023/05/14 10:37:24;;;;;;;;;24.33;18.00;25.30;43.10;;;;;;111775;1241;55753;-67
2023/05/14 10:40:01;;;;;;;;;20.00;16.50;25.30;42.80;;;;;;111576;1238;53910;-67
2023/05/14 10:42:38;;;;;;;;;24.00;17.00;25.30;42.80;;;;;;111778;1238;49907;-66
2023/05/14 10:45:07;;;;;;;;;20.67;18.00;25.30;42.70;;;;;;111972;1240;49783;-67
2023/05/14 10:47:36;;;;;;;;;18.33;17.33;25.30;42.70;;;;;;111777;1237;46857;-67
2023/05/14 10:50:05;;;;;;;;;22.67;19.00;25.30;42.70;;;;;;111685;1237;55250;-67
2023/05/14 10:52:33;;;;;;;;;18.75;17.75;25.30;42.60;;;;;;111582;1243;53465;-65
2023/05/14 10:55:08;;;;;;;;;23.00;18.00;25.30;42.70;;;;;;111935;1237;49906;-67
2023/05/14 10:57:37;;;;;;;;;19.00;17.00;25.30;42.70;;;;;;111514;1237;49522;-67
2023/05/14 11:00:14;;;;;;;;;20.00;18.00;25.30;43.10;;;;;;111781;1237;46750;-67
2023/05/14 11:02:43;;;;;;;;;22.75;21.50;25.20;42.60;;;;;;111704;1237;55915;-66
2023/05/14 11:05:12;;;;;;;;;21.50;17.75;25.30;42.60;;;;;;111510;1239;53286;-67
2023/05/14 11:07:47;;;;;;;;;20.25;18.25;25.20;42.80;;;;;;111458;1241;50754;-66
2023/05/14 11:10:16;;;;;;;;;21.25;17.00;25.20;42.60;;;;;;111745;1241;49787;-68
2023/05/14 11:12:47;;;;;;;;;18.25;16.00;25.20;42.60;;;;;;111821;1240;45170;-67
2023/05/14 11:15:17;;;;;;;;;23.75;20.00;25.20;42.80;;;;;;112023;1236;56556;-67
2023/05/14 11:17:45;;;;;;;;;21.33;17.33;25.20;42.60;;;;;;111703;1238;53335;-67
2023/05/14 11:20:13;;;;;;;;;23.75;18.75;25.20;42.60;;;;;;111680;1242;49340;-67
2023/05/14 11:22:54;;;;;;;;;22.33;20.00;25.20;42.80;;;;;;111625;1247;49763;-68
2023/05/14 11:25:24;;;;;;;;;19.75;17.00;25.10;42.50;;;;;;112076;1240;45906;-67
2023/05/14 11:27:54;;;;;;;;;23.50;19.25;25.10;42.50;;;;;;111665;1238;55674;-66
2023/05/14 11:30:21;;;;;;;;;18.75;16.00;25.10;42.50;;;;;;111727;1240;54586;-66
2023/05/14 11:32:49;;;;;;;;;20.33;18.00;25.10;42.50;;;;;;111710;1236;49428;-68
2023/05/14 11:35:17;;;;;;;;;23.00;21.50;25.00;42.70;;;;;;111871;1237;49469;-67
2023/05/14 11:37:51;;;;;;;;;21.25;19.00;25.00;42.60;;;;;;111761;1238;45426;-67
2023/05/14 11:40:18;;;;;;;;;21.75;18.75;25.00;42.50;;;;;;111765;1240;55921;-68
2023/05/14 11:42:45;;;;;;;;;18.67;17.00;25.00;42.50;;;;;;111746;1237;53825;-67
2023/05/14 11:45:13;;;;;;;;;28.50;20.50;24.90;42.50;;;;;;112074;1237;49776;-68
2023/05/14 11:47:41;;;;;;;;;18.75;16.50;24.90;42.50;;;;;;111783;1241;49759;-66
2023/05/14 11:50:09;;;;;;;;;20.00;18.00;24.90;42.50;;;;;;111460;1238;45719;-68
2023/05/14 11:52:39;;;;;;;;;21.00;18.75;24.90;42.50;;;;;;111754;1240;55803;-67
2023/05/14 11:55:11;;;;;;;;;21.00;19.75;24.90;42.50;;;;;;111559;1241;53288;-67
2023/05/14 11:57:38;;;;;;;;;19.00;16.33;24.90;42.70;;;;;;111775;1236;50284;-68
2023/05/14 12:00:12;;;;;;;;;27.50;18.75;24.90;42.50;;;;;;111793;1237;49806;-68
2023/05/14 12:02:39;;;;;;;;;21.33;18.33;24.90;42.50;;;;;;111674;1240;45095;-66
2023/05/14 12:05:07;;;;;;;;;19.50;17.25;24.90;42.50;;;;;;111483;1237;55342;-69
2023/05/14 12:07:34;;;;;;;;;18.67;16.67;24.80;42.60;;;;;;111536;1240;54543;-68
2023/05/14 12:10:02;;;;;;;;;16.75;15.75;24.80;42.30;;;;;;111755;1238;49386;-68
2023/05/14 12:12:34;;;;;;;;;16.50;15.25;24.80;42.50;;;;;;111642;1243;49900;-67
2023/05/14 12:15:10;;;;;;;;;21.00;17.00;24.80;42.30;;;;;;112022;1236;45493;-67
2023/05/14 12:17:37;;;;;;;;;23.00;17.50;24.80;42.50;;;;;;111676;1240;55772;-67
2023/05/14 12:20:07;;;;;;;;;18.75;16.50;24.80;42.60;;;;;;111654;1238;53955;-67
2023/05/14 12:22:34;;;;;;;;;20.67;18.67;24.80;42.20;;;;;;111707;1240;50864;-67